Time;durP1;ratioP1;P1;durP2;ratioP2;P2;SDS_P1;SDS_P2;PMS_P1;PMS_P2;Temp;Humidity;BMP_temperature;BMP_pressure;BME280_temperature;BME280_humidity;BME280_pressure;Samples;Min_cycle;Max_cycle;Signal;HPM_P1;HPM_P2
2021/08/26 00:00:35;;;;;;;;;;;11.90;99.90;;;;;;5113641;28;20272;-72
2021/08/26 00:05:48;;;;;;;;;;;11.80;99.90;;;;;;5113849;28;19915;-72
2021/08/26 00:08:14;;;;;;;;;;;11.80;99.90;;;;;;5113341;28;19908;-72
2021/08/26 00:10:40;;;;;;;;;;;11.80;99.90;;;;;;5113994;28;19948;-71
2021/08/26 00:13:07;;;;;;;;;;;11.80;99.90;;;;;;5113529;28;19964;-72
2021/08/26 00:15:33;;;;;;;;;;;11.70;99.90;;;;;;5113447;28;19912;-72
2021/08/26 00:17:59;;;;;;;;;;;11.70;99.90;;;;;;5112979;28;19915;-72
2021/08/26 00:20:26;;;;;;;;;;;11.60;99.90;;;;;;5102867;28;19934;-72
2021/08/26 00:22:51;;;;;;;;;;;11.60;99.90;;;;;;5091639;28;19947;-72
2021/08/26 00:25:17;;;;;;;;;;;11.60;99.90;;;;;;5093543;28;19909;-72
2021/08/26 00:27:42;;;;;;;;;;;11.60;99.90;;;;;;5092289;28;20342;-72
2021/08/26 00:30:08;;;;;;;;;;;11.60;99.90;;;;;;5093004;28;19915;-72
2021/08/26 00:32:34;;;;;;;;;;;11.50;99.90;;;;;;5092955;28;19908;-72
2021/08/26 00:34:59;;;;;;;;;;;11.40;99.90;;;;;;5092885;28;19908;-72
2021/08/26 00:37:25;;;;;;;;;;;11.30;99.90;;;;;;5092294;28;19936;-72
2021/08/26 00:39:50;;;;;;;;;;;11.20;99.90;;;;;;5092731;28;19908;-72
2021/08/26 00:42:16;;;;;;;;;;;11.00;99.90;;;;;;5092458;28;19913;-72
2021/08/26 00:44:41;;;;;;;;;;;10.90;99.90;;;;;;5092613;28;19966;-72
2021/08/26 00:47:08;;;;;;;;;;;10.90;99.90;;;;;;5091982;28;19999;-71
2021/08/26 00:49:33;;;;;;;;;;;10.80;99.90;;;;;;5091469;28;20287;-72
2021/08/26 00:52:00;;;;;;;;;;;10.80;99.90;;;;;;5091399;28;19916;-72
2021/08/26 00:54:25;;;;;;;;;;;10.70;99.90;;;;;;5091242;28;19909;-72
2021/08/26 00:56:51;;;;;;;;;;;10.70;99.90;;;;;;5091856;28;20317;-72
2021/08/26 00:59:16;;;;;;;;;;;10.70;99.90;;;;;;5092319;28;19912;-72
2021/08/26 01:01:44;;;;;;;;;;;10.70;99.90;;;;;;5092018;28;19919;-72
2021/08/26 01:04:28;;;;;;;;;;;10.60;99.90;;;;;;5092272;28;19948;-72
2021/08/26 01:07:17;;;;;;;;;;;10.50;99.90;;;;;;5091846;28;20284;-72
2021/08/26 01:09:56;;;;;;;;;;;10.40;99.90;;;;;;5086258;28;19954;-72
2021/08/26 01:12:22;;;;;;;;;;;10.30;99.90;;;;;;5092110;28;20015;-71
2021/08/26 01:14:49;;;;;;;;;;;10.20;99.90;;;;;;5092061;28;19919;-71
2021/08/26 01:17:18;;;;;;;;;;;10.10;99.90;;;;;;5091633;28;19914;-72
2021/08/26 01:19:43;;;;;;;;;;;10.10;99.90;;;;;;5088493;28;19916;-71
2021/08/26 01:22:09;;;;;;;;;;;10.10;99.90;;;;;;5091751;28;20011;-72
2021/08/26 01:24:36;;;;;;;;;;;10.00;99.90;;;;;;5091878;28;20018;-72
2021/08/26 01:27:02;;;;;;;;;;;10.00;99.90;;;;;;5091507;28;19916;-72
2021/08/26 01:29:27;;;;;;;;;;;10.00;99.90;;;;;;5091945;28;19908;-72
2021/08/26 01:31:53;;;;;;;;;;;10.00;99.90;;;;;;5090966;28;20545;-72
2021/08/26 01:34:20;;;;;;;;;;;9.90;99.90;;;;;;5091704;28;19908;-72
2021/08/26 01:36:46;;;;;;;;;;;9.90;99.90;;;;;;5088854;28;19908;-72
2021/08/26 01:39:12;;;;;;;;;;;9.90;99.90;;;;;;5091663;28;20361;-72
2021/08/26 01:41:38;;;;;;;;;;;9.90;99.90;;;;;;5091575;28;20166;-72
2021/08/26 01:44:04;;;;;;;;;;;9.80;99.90;;;;;;5091641;28;19908;-71
2021/08/26 01:46:30;;;;;;;;;;;9.70;99.90;;;;;;5091321;28;20002;-72
2021/08/26 01:48:55;;;;;;;;;;;9.80;99.90;;;;;;5091461;28;19908;-72
2021/08/26 01:51:21;;;;;;;;;;;9.80;99.90;;;;;;5088937;28;19915;-72
2021/08/26 01:53:46;;;;;;;;;;;9.70;99.90;;;;;;5091408;28;19908;-71
2021/08/26 01:56:12;;;;;;;;;;;9.70;99.90;;;;;;5091134;28;19918;-72
2021/08/26 01:58:37;;;;;;;;;;;9.70;99.90;;;;;;5091478;28;19944;-72
2021/08/26 02:01:03;;;;;;;;;;;9.70;99.90;;;;;;5091671;28;19908;-72
2021/08/26 02:03:28;;;;;;;;;;;9.70;99.90;;;;;;5092227;28;19961;-72
2021/08/26 02:05:53;;;;;;;;;;;9.60;99.90;;;;;;5092533;28;19970;-72
2021/08/26 02:08:19;;;;;;;;;;;9.50;99.90;;;;;;5091231;28;20050;-72
2021/08/26 02:10:44;;;;;;;;;;;9.60;99.90;;;;;;5091234;28;20284;-71
2021/08/26 02:13:10;;;;;;;;;;;9.50;99.90;;;;;;5091549;28;19908;-72
2021/08/26 02:15:35;;;;;;;;;;;9.40;99.90;;;;;;5092166;28;19908;-72
2021/08/26 02:18:01;;;;;;;;;;;9.40;99.90;;;;;;5091938;28;19923;-72
2021/08/26 02:20:26;;;;;;;;;;;9.50;99.90;;;;;;5089321;28;20368;-72
2021/08/26 02:22:52;;;;;;;;;;;9.50;99.90;;;;;;5091313;28;19959;-72
2021/08/26 02:25:17;;;;;;;;;;;9.40;99.90;;;;;;5091102;28;19908;-72
2021/08/26 02:27:43;;;;;;;;;;;9.30;99.90;;;;;;5090992;28;19908;-72
2021/08/26 02:30:09;;;;;;;;;;;9.20;99.90;;;;;;5091372;28;19909;-72
2021/08/26 02:32:35;;;;;;;;;;;9.20;99.90;;;;;;5091008;28;19909;-72
2021/08/26 02:35:01;;;;;;;;;;;9.10;99.90;;;;;;5091414;28;19999;-72
2021/08/26 02:37:27;;;;;;;;;;;9.10;99.90;;;;;;5090833;28;19966;-72
2021/08/26 02:39:53;;;;;;;;;;;9.10;99.90;;;;;;5091275;28;20003;-72
2021/08/26 02:42:18;;;;;;;;;;;9.10;99.90;;;;;;5091175;28;19908;-72
2021/08/26 02:44:44;;;;;;;;;;;9.10;99.90;;;;;;5094137;28;19908;-72
2021/08/26 02:47:09;;;;;;;;;;;9.10;99.90;;;;;;5094505;28;19923;-72
2021/08/26 02:49:37;;;;;;;;;;;9.10;99.90;;;;;;5093553;28;20401;-72
2021/08/26 02:52:03;;;;;;;;;;;9.00;99.90;;;;;;5094322;28;19916;-72
2021/08/26 02:54:28;;;;;;;;;;;9.00;99.90;;;;;;5095123;28;19908;-72
2021/08/26 02:56:53;;;;;;;;;;;8.90;99.90;;;;;;5094644;28;19927;-72
2021/08/26 02:59:19;;;;;;;;;;;8.90;99.90;;;;;;5094879;28;20202;-72
2021/08/26 03:01:44;;;;;;;;;;;8.90;99.90;;;;;;5094480;28;19908;-72
2021/08/26 03:04:10;;;;;;;;;;;8.90;99.90;;;;;;5093328;28;19908;-71
2021/08/26 03:06:35;;;;;;;;;;;8.90;99.90;;;;;;5094434;28;20008;-72
2021/08/26 03:09:01;;;;;;;;;;;8.90;99.90;;;;;;5094737;28;19915;-72
2021/08/26 03:11:26;;;;;;;;;;;9.00;99.90;;;;;;5094860;28;19909;-72
2021/08/26 03:13:52;;;;;;;;;;;9.00;99.90;;;;;;5094410;28;19946;-72
2021/08/26 03:16:17;;;;;;;;;;;9.00;99.90;;;;;;5093940;28;19950;-72
2021/08/26 03:18:43;;;;;;;;;;;9.00;99.90;;;;;;5094367;28;19912;-71
2021/08/26 03:21:08;;;;;;;;;;;9.30;99.90;;;;;;5091152;28;19908;-72
2021/08/26 03:23:34;;;;;;;;;;;9.80;99.90;;;;;;5094501;28;19908;-72
2021/08/26 03:25:59;;;;;;;;;;;10.10;99.90;;;;;;5094289;28;20503;-72
2021/08/26 03:28:25;;;;;;;;;;;10.40;99.90;;;;;;5094025;28;19908;-71
2021/08/26 03:30:50;;;;;;;;;;;10.50;99.90;;;;;;5094134;28;20011;-72
2021/08/26 03:33:16;;;;;;;;;;;10.60;99.90;;;;;;5094689;28;19909;-72
2021/08/26 03:35:41;;;;;;;;;;;10.70;99.90;;;;;;5094400;28;19965;-71
2021/08/26 03:38:07;;;;;;;;;;;10.80;99.90;;;;;;5093698;28;19959;-71
2021/08/26 03:40:32;;;;;;;;;;;10.80;99.90;;;;;;5094101;28;19962;-72
2021/08/26 03:42:58;;;;;;;;;;;10.80;99.90;;;;;;5094007;28;19908;-72
2021/08/26 03:45:23;;;;;;;;;;;10.80;99.90;;;;;;5093852;28;19912;-71
2021/08/26 03:47:49;;;;;;;;;;;10.80;99.90;;;;;;5093483;28;19979;-71
2021/08/26 03:50:14;;;;;;;;;;;10.70;99.90;;;;;;5091633;28;19953;-72
2021/08/26 03:52:40;;;;;;;;;;;10.70;99.90;;;;;;5093783;28;19915;-72
2021/08/26 03:55:06;;;;;;;;;;;10.70;99.90;;;;;;5093072;28;19999;-71
2021/08/26 03:57:31;;;;;;;;;;;10.60;99.90;;;;;;5092948;28;19908;-71
2021/08/26 03:59:56;;;;;;;;;;;10.50;99.90;;;;;;5093620;28;20170;-72
2021/08/26 04:02:22;;;;;;;;;;;10.50;99.90;;;;;;5093911;28;20017;-72
2021/08/26 04:04:48;;;;;;;;;;;10.40;99.90;;;;;;5093305;28;19908;-72
2021/08/26 04:07:15;;;;;;;;;;;10.30;99.90;;;;;;5093275;28;19908;-71
2021/08/26 04:09:41;;;;;;;;;;;10.20;99.90;;;;;;5093723;28;19908;-72
2021/08/26 04:12:06;;;;;;;;;;;10.10;99.90;;;;;;5093311;28;20324;-71
2021/08/26 04:14:32;;;;;;;;;;;10.00;99.90;;;;;;5093432;28;20326;-72
2021/08/26 04:16:57;;;;;;;;;;;9.90;99.90;;;;;;5092933;28;19909;-72
2021/08/26 04:19:23;;;;;;;;;;;9.90;99.90;;;;;;5093556;28;19919;-72
2021/08/26 04:21:48;;;;;;;;;;;9.80;99.90;;;;;;5090775;28;20268;-71
2021/08/26 04:24:13;;;;;;;;;;;9.70;99.90;;;;;;5093261;28;19915;-72
2021/08/26 04:26:39;;;;;;;;;;;9.70;99.90;;;;;;5092671;28;19915;-72
2021/08/26 04:29:04;;;;;;;;;;;9.70;99.90;;;;;;5093219;28;19958;-72
2021/08/26 04:31:30;;;;;;;;;;;9.70;99.90;;;;;;5092904;28;19912;-72
2021/08/26 04:33:55;;;;;;;;;;;9.70;99.90;;;;;;5093049;28;19908;-72
2021/08/26 04:36:21;;;;;;;;;;;9.80;99.90;;;;;;5092677;28;19915;-72
2021/08/26 04:38:46;;;;;;;;;;;9.90;99.90;;;;;;5092784;28;19912;-72
2021/08/26 04:41:12;;;;;;;;;;;10.00;99.90;;;;;;5092826;28;20373;-72
2021/08/26 04:43:37;;;;;;;;;;;10.00;99.90;;;;;;5092627;28;19915;-72
2021/08/26 04:46:03;;;;;;;;;;;10.00;99.90;;;;;;5092461;28;19922;-71
2021/08/26 04:48:28;;;;;;;;;;;10.00;99.90;;;;;;5092712;28;19908;-71
2021/08/26 04:50:54;;;;;;;;;;;10.10;99.90;;;;;;5090282;28;19915;-72
2021/08/26 04:53:19;;;;;;;;;;;10.10;99.90;;;;;;5092705;28;20374;-72
2021/08/26 04:55:45;;;;;;;;;;;10.20;99.90;;;;;;5092469;28;19909;-72
2021/08/26 04:58:10;;;;;;;;;;;10.20;99.90;;;;;;5092232;28;20364;-72
2021/08/26 05:00:36;;;;;;;;;;;10.30;99.90;;;;;;5092236;28;19908;-72
2021/08/26 05:03:03;;;;;;;;;;;10.30;99.90;;;;;;5092438;28;19912;-72
2021/08/26 05:05:29;;;;;;;;;;;10.40;99.90;;;;;;5092362;28;19987;-72
2021/08/26 05:07:54;;;;;;;;;;;10.50;99.90;;;;;;5090994;28;19908;-72
2021/08/26 05:10:20;;;;;;;;;;;10.60;99.90;;;;;;5092322;28;19909;-72
2021/08/26 05:12:45;;;;;;;;;;;10.60;99.90;;;;;;5092086;28;19915;-71
2021/08/26 05:15:11;;;;;;;;;;;10.80;99.90;;;;;;5092013;28;20403;-72
2021/08/26 05:17:36;;;;;;;;;;;10.90;99.90;;;;;;5091878;28;19908;-72
2021/08/26 05:20:02;;;;;;;;;;;11.00;99.90;;;;;;5089805;28;19912;-71
2021/08/26 05:22:27;;;;;;;;;;;11.00;99.90;;;;;;5091782;28;19908;-70
2021/08/26 05:24:53;;;;;;;;;;;11.10;99.90;;;;;;5092053;28;19956;-72
2021/08/26 05:27:18;;;;;;;;;;;11.30;99.90;;;;;;5091919;28;20037;-72
2021/08/26 05:29:44;;;;;;;;;;;11.60;99.90;;;;;;5091836;28;19908;-71
2021/08/26 05:32:10;;;;;;;;;;;11.70;99.90;;;;;;5091836;28;20319;-71
2021/08/26 05:34:35;;;;;;;;;;;11.70;99.90;;;;;;5091838;28;19915;-72
2021/08/26 05:37:01;;;;;;;;;;;11.80;99.90;;;;;;5091470;28;19961;-72
2021/08/26 05:39:26;;;;;;;;;;;11.80;99.90;;;;;;5091761;28;20077;-72
2021/08/26 05:41:52;;;;;;;;;;;11.90;99.90;;;;;;5091755;28;19979;-72
2021/08/26 05:44:17;;;;;;;;;;;12.00;99.90;;;;;;5091577;28;20018;-72
2021/08/26 05:46:44;;;;;;;;;;;12.00;99.90;;;;;;5091144;28;19920;-72
2021/08/26 05:49:09;;;;;;;;;;;12.10;99.90;;;;;;5091646;28;20365;-72
2021/08/26 05:51:35;;;;;;;;;;;12.20;99.90;;;;;;5091445;28;19962;-72
2021/08/26 05:54:00;;;;;;;;;;;12.30;99.90;;;;;;5091538;28;19950;-72
2021/08/26 05:56:27;;;;;;;;;;;12.30;99.90;;;;;;5091076;28;19908;-72
2021/08/26 05:58:53;;;;;;;;;;;12.40;99.90;;;;;;5091455;28;19923;-71
2021/08/26 06:01:18;;;;;;;;;;;12.50;99.90;;;;;;5091411;28;19908;-71
2021/08/26 06:03:44;;;;;;;;;;;12.60;99.90;;;;;;5091713;28;19908;-72
2021/08/26 06:06:09;;;;;;;;;;;12.60;99.90;;;;;;5091283;28;20454;-72
2021/08/26 06:08:35;;;;;;;;;;;12.70;99.90;;;;;;5091919;28;19916;-72
2021/08/26 06:11:00;;;;;;;;;;;12.90;99.90;;;;;;5095382;28;19916;-72
2021/08/26 06:13:26;;;;;;;;;;;12.90;99.90;;;;;;5096273;28;19908;-73
2021/08/26 06:15:51;;;;;;;;;;;13.00;99.90;;;;;;5095813;28;19908;-72
2021/08/26 06:18:17;;;;;;;;;;;13.00;99.90;;;;;;5094854;28;20444;-71
2021/08/26 06:20:43;;;;;;;;;;;13.10;99.90;;;;;;5095261;28;19908;-72
2021/08/26 06:23:09;;;;;;;;;;;13.10;99.90;;;;;;5095706;28;19908;-72
2021/08/26 06:25:34;;;;;;;;;;;13.20;99.90;;;;;;5095490;28;19920;-72
2021/08/26 06:28:00;;;;;;;;;;;13.30;99.90;;;;;;5095097;28;19912;-72
2021/08/26 06:30:26;;;;;;;;;;;13.30;99.90;;;;;;5095379;28;19908;-72
2021/08/26 06:32:51;;;;;;;;;;;13.40;99.90;;;;;;5095634;28;20368;-71
2021/08/26 06:35:17;;;;;;;;;;;13.40;99.90;;;;;;5095448;28;20327;-72
2021/08/26 06:37:42;;;;;;;;;;;13.30;99.90;;;;;;5094893;28;19938;-72
2021/08/26 06:40:08;;;;;;;;;;;13.20;99.90;;;;;;5095189;28;19908;-72
2021/08/26 06:42:34;;;;;;;;;;;13.20;99.90;;;;;;5095056;28;19908;-72
2021/08/26 06:44:59;;;;;;;;;;;13.20;99.90;;;;;;5095255;28;19908;-71
2021/08/26 06:47:25;;;;;;;;;;;13.20;99.90;;;;;;5094653;28;20320;-72
2021/08/26 06:49:50;;;;;;;;;;;13.30;99.90;;;;;;5091564;28;19951;-72
2021/08/26 06:52:16;;;;;;;;;;;13.30;99.90;;;;;;5094743;28;19999;-72
2021/08/26 06:54:41;;;;;;;;;;;13.40;99.90;;;;;;5094986;28;19922;-71
2021/08/26 06:57:07;;;;;;;;;;;13.40;99.90;;;;;;5094555;28;19948;-72
2021/08/26 06:59:33;;;;;;;;;;;13.30;99.90;;;;;;5094760;28;19916;-72
2021/08/26 07:01:58;;;;;;;;;;;13.40;99.90;;;;;;5094752;28;19908;-72
2021/08/26 07:04:24;;;;;;;;;;;13.40;99.90;;;;;;5094615;28;19961;-71
2021/08/26 07:06:53;;;;;;;;;;;13.40;99.90;;;;;;5094298;28;19935;-72
2021/08/26 07:09:18;;;;;;;;;;;13.30;99.90;;;;;;5094447;28;19913;-71
2021/08/26 07:11:44;;;;;;;;;;;13.30;99.90;;;;;;5094739;28;19908;-71
2021/08/26 07:14:09;;;;;;;;;;;13.30;99.90;;;;;;5087272;28;19943;-72
2021/08/26 07:16:35;;;;;;;;;;;13.30;99.90;;;;;;5081227;28;20327;-72
2021/08/26 07:19:00;;;;;;;;;;;13.30;99.90;;;;;;5091964;28;19919;-72
2021/08/26 07:21:26;;;;;;;;;;;13.20;99.90;;;;;;5083654;28;19908;-72
2021/08/26 07:23:52;;;;;;;;;;;13.20;99.90;;;;;;5094404;28;20026;-72
2021/08/26 07:26:19;;;;;;;;;;;13.10;99.90;;;;;;5092827;28;19908;-72
2021/08/26 07:28:44;;;;;;;;;;;13.10;99.90;;;;;;5092710;28;20525;-72
2021/08/26 07:31:10;;;;;;;;;;;13.10;99.90;;;;;;5087637;28;19908;-72
2021/08/26 07:33:35;;;;;;;;;;;13.10;99.90;;;;;;5088786;28;19909;-72
2021/08/26 07:36:02;;;;;;;;;;;13.20;99.90;;;;;;5092049;28;20053;-70
2021/08/26 07:38:27;;;;;;;;;;;13.20;99.90;;;;;;5092055;28;19912;-72
2021/08/26 07:40:53;;;;;;;;;;;13.20;99.90;;;;;;5092148;28;19944;-71
2021/08/26 07:43:18;;;;;;;;;;;13.20;99.90;;;;;;5088786;28;20442;-72
2021/08/26 07:45:44;;;;;;;;;;;13.20;99.90;;;;;;5094274;28;19959;-72
2021/08/26 07:48:09;;;;;;;;;;;13.20;99.90;;;;;;5089475;28;19954;-72
2021/08/26 07:50:35;;;;;;;;;;;13.20;99.90;;;;;;5089536;28;19930;-71
2021/08/26 07:53:00;;;;;;;;;;;13.30;99.90;;;;;;5089866;28;19908;-72
2021/08/26 07:55:26;;;;;;;;;;;13.40;99.90;;;;;;5087348;28;19946;-72
2021/08/26 07:57:51;;;;;;;;;;;13.50;99.90;;;;;;5088977;28;19919;-72
2021/08/26 08:00:17;;;;;;;;;;;13.50;99.90;;;;;;5088105;28;19908;-72
2021/08/26 08:02:42;;;;;;;;;;;13.60;99.90;;;;;;5084732;28;19930;-72
2021/08/26 08:05:08;;;;;;;;;;;13.70;99.90;;;;;;5092805;28;19908;-71
2021/08/26 08:07:34;;;;;;;;;;;13.80;99.90;;;;;;5091110;28;19908;-72
2021/08/26 08:09:59;;;;;;;;;;;13.80;99.90;;;;;;5074835;28;19969;-71
2021/08/26 08:12:25;;;;;;;;;;;13.90;99.90;;;;;;5091310;28;20034;-72
2021/08/26 08:14:50;;;;;;;;;;;14.00;99.90;;;;;;5093184;28;19909;-72
2021/08/26 08:17:16;;;;;;;;;;;14.20;99.90;;;;;;5092725;28;20288;-72
2021/08/26 08:19:41;;;;;;;;;;;14.30;99.90;;;;;;5087982;28;19916;-72
2021/08/26 08:22:07;;;;;;;;;;;14.30;99.90;;;;;;5089156;28;19983;-72
2021/08/26 08:24:32;;;;;;;;;;;14.30;99.90;;;;;;5092201;28;19908;-71
2021/08/26 08:26:58;;;;;;;;;;;14.50;99.90;;;;;;5090950;28;19912;-72
2021/08/26 08:29:23;;;;;;;;;;;14.50;99.90;;;;;;5092982;28;19908;-72
2021/08/26 08:31:49;;;;;;;;;;;14.70;99.90;;;;;;5085382;28;19918;-72
2021/08/26 08:34:15;;;;;;;;;;;15.00;99.90;;;;;;5071965;28;19912;-72
2021/08/26 08:36:40;;;;;;;;;;;15.30;99.90;;;;;;5088921;28;19908;-71
2021/08/26 08:39:06;;;;;;;;;;;15.30;99.90;;;;;;5084989;28;20381;-72
2021/08/26 08:41:32;;;;;;;;;;;15.30;99.90;;;;;;5089577;28;20314;-72
2021/08/26 08:44:01;;;;;;;;;;;15.10;99.90;;;;;;5064404;28;20347;-72
2021/08/26 08:46:27;;;;;;;;;;;14.90;99.90;;;;;;5080863;28;19947;-72
2021/08/26 08:48:54;;;;;;;;;;;14.70;99.90;;;;;;5090652;28;20340;-71
2021/08/26 08:51:21;;;;;;;;;;;14.60;99.90;;;;;;5086239;28;19998;-72
2021/08/26 08:53:47;;;;;;;;;;;14.50;99.90;;;;;;5080822;28;19908;-72
2021/08/26 08:56:12;;;;;;;;;;;14.50;99.90;;;;;;5089541;28;20523;-72
2021/08/26 08:58:39;;;;;;;;;;;14.40;99.90;;;;;;5072030;28;19913;-72
2021/08/26 09:01:04;;;;;;;;;;;14.30;99.90;;;;;;5073410;28;19976;-72
2021/08/26 09:03:30;;;;;;;;;;;14.30;99.90;;;;;;5083270;28;20412;-72
2021/08/26 09:05:59;;;;;;;;;;;14.30;99.90;;;;;;5092417;28;20333;-71
2021/08/26 09:08:26;;;;;;;;;;;14.30;99.90;;;;;;5081261;28;19908;-71
2021/08/26 09:10:53;;;;;;;;;;;14.40;99.90;;;;;;5084557;28;19919;-72
2021/08/26 09:13:32;;;;;;;;;;;14.30;99.90;;;;;;5100528;28;19908;-72
2021/08/26 09:15:58;;;;;;;;;;;14.40;99.90;;;;;;5083601;28;19908;-72
2021/08/26 09:18:23;;;;;;;;;;;14.50;99.90;;;;;;5083014;28;19953;-71
2021/08/26 09:21:07;;;;;;;;;;;14.60;99.90;;;;;;5086869;28;20385;-72
2021/08/26 09:23:34;;;;;;;;;;;14.50;99.90;;;;;;5089742;28;20003;-72
2021/08/26 09:26:18;;;;;;;;;;;14.50;99.90;;;;;;5091550;28;19909;-72
2021/08/26 09:28:43;;;;;;;;;;;14.20;99.90;;;;;;5087941;28;19908;-71
2021/08/26 09:31:17;;;;;;;;;;;14.20;99.90;;;;;;5077904;28;19908;-72
2021/08/26 09:33:45;;;;;;;;;;;14.20;99.90;;;;;;5073937;28;19944;-71
2021/08/26 09:36:16;;;;;;;;;;;14.30;99.90;;;;;;5081476;28;20362;-72
2021/08/26 09:38:41;;;;;;;;;;;14.50;99.90;;;;;;5091234;28;19912;-72
2021/08/26 09:41:06;;;;;;;;;;;14.30;99.90;;;;;;5090285;28;19915;-72
2021/08/26 09:43:32;;;;;;;;;;;14.30;99.90;;;;;;5088582;28;19912;-71
2021/08/26 09:45:58;;;;;;;;;;;14.30;99.90;;;;;;5078259;28;20006;-71
2021/08/26 09:48:23;;;;;;;;;;;14.20;99.90;;;;;;5076720;28;19975;-71
2021/08/26 09:50:53;;;;;;;;;;;14.40;99.90;;;;;;5083234;28;19915;-72
2021/08/26 09:53:20;;;;;;;;;;;14.40;99.90;;;;;;5078316;28;19909;-70
2021/08/26 09:55:48;;;;;;;;;;;14.40;99.90;;;;;;5086170;28;19915;-72
2021/08/26 09:58:14;;;;;;;;;;;14.60;99.90;;;;;;5090480;28;20034;-72
2021/08/26 10:00:40;;;;;;;;;;;14.70;99.90;;;;;;5083530;28;19974;-72
2021/08/26 10:03:09;;;;;;;;;;;14.40;99.90;;;;;;5091058;28;20373;-72
2021/08/26 10:05:36;;;;;;;;;;;14.30;99.90;;;;;;5086974;28;20372;-72
2021/08/26 10:08:02;;;;;;;;;;;13.80;99.90;;;;;;5088279;28;19955;-72
2021/08/26 10:10:27;;;;;;;;;;;13.80;99.90;;;;;;5085393;28;20333;-72
2021/08/26 10:12:53;;;;;;;;;;;14.10;99.90;;;;;;5089878;28;20254;-72
2021/08/26 10:15:18;;;;;;;;;;;14.20;99.90;;;;;;5089203;28;19935;-72
2021/08/26 10:17:44;;;;;;;;;;;14.30;99.90;;;;;;5089596;28;20412;-72
2021/08/26 10:20:10;;;;;;;;;;;14.20;99.90;;;;;;5089775;28;19908;-70
2021/08/26 10:22:35;;;;;;;;;;;14.00;99.90;;;;;;5081644;28;20372;-72
2021/08/26 10:25:01;;;;;;;;;;;14.00;99.90;;;;;;5089099;28;19998;-72
2021/08/26 10:27:28;;;;;;;;;;;14.00;99.90;;;;;;5088965;28;19953;-72
2021/08/26 10:29:54;;;;;;;;;;;13.90;99.90;;;;;;5087585;28;20464;-72
2021/08/26 10:32:24;;;;;;;;;;;13.80;99.90;;;;;;5072352;28;20102;-72
2021/08/26 10:35:08;;;;;;;;;;;13.70;99.90;;;;;;5100967;28;19948;-72
2021/08/26 10:37:54;;;;;;;;;;;13.70;99.90;;;;;;5089166;28;19947;-72
2021/08/26 10:40:25;;;;;;;;;;;13.80;99.90;;;;;;5087118;28;19977;-71
2021/08/26 10:42:51;;;;;;;;;;;13.60;99.90;;;;;;5092176;28;20284;-72
2021/08/26 10:45:25;;;;;;;;;;;13.60;99.90;;;;;;5083642;28;19908;-72
2021/08/26 10:47:52;;;;;;;;;;;13.30;99.90;;;;;;5087816;28;19909;-72
2021/08/26 10:50:18;;;;;;;;;;;13.40;99.90;;;;;;5101220;28;20288;-71
2021/08/26 10:52:56;;;;;;;;;;;13.60;99.90;;;;;;5084810;28;19908;-71
2021/08/26 10:55:27;;;;;;;;;;;13.60;99.90;;;;;;5086835;28;20388;-72
2021/08/26 10:57:53;;;;;;;;;;;13.60;99.90;;;;;;5087907;28;19916;-72
2021/08/26 11:00:47;;;;;;;;;;;13.60;99.90;;;;;;5089116;28;19908;-72
2021/08/26 11:03:31;;;;;;;;;;;13.70;99.90;;;;;;5059498;28;19923;-72
2021/08/26 11:05:57;;;;;;;;;;;13.50;99.90;;;;;;5090439;28;19933;-72
2021/08/26 11:08:26;;;;;;;;;;;13.20;99.90;;;;;;5093371;28;19990;-72
2021/08/26 11:10:52;;;;;;;;;;;13.00;99.90;;;;;;5093229;28;19950;-71
2021/08/26 11:13:27;;;;;;;;;;;12.90;99.90;;;;;;5092706;28;19978;-72
2021/08/26 11:15:52;;;;;;;;;;;13.30;99.90;;;;;;5090556;28;19912;-72
2021/08/26 11:18:28;;;;;;;;;;;13.10;99.90;;;;;;5092761;28;20289;-70
2021/08/26 11:20:54;;;;;;;;;;;13.50;99.90;;;;;;5075896;28;20365;-71
2021/08/26 11:23:39;;;;;;;;;;;13.90;99.90;;;;;;5098018;28;19915;-72
2021/08/26 11:26:23;;;;;;;;;;;14.20;99.90;;;;;;5082473;28;19908;-72
2021/08/26 11:28:49;;;;;;;;;;;15.20;99.90;;;;;;5093167;28;19908;-71
2021/08/26 11:31:15;;;;;;;;;;;15.50;99.90;;;;;;5089559;28;20289;-71
2021/08/26 11:33:41;;;;;;;;;;;16.30;99.90;;;;;;5085709;28;20308;-71
2021/08/26 11:36:13;;;;;;;;;;;16.70;99.90;;;;;;5103664;28;19908;-72
2021/08/26 11:38:46;;;;;;;;;;;17.00;99.90;;;;;;5089730;28;19912;-71
2021/08/26 11:41:12;;;;;;;;;;;16.80;99.90;;;;;;5090173;28;19908;-72
2021/08/26 11:43:41;;;;;;;;;;;16.10;99.90;;;;;;5091084;28;20036;-72
2021/08/26 11:46:11;;;;;;;;;;;16.40;99.90;;;;;;5089838;28;20007;-71
2021/08/26 11:48:45;;;;;;;;;;;16.30;99.90;;;;;;5090104;28;19908;-72
2021/08/26 11:51:18;;;;;;;;;;;16.70;99.90;;;;;;5093524;28;19973;-71
2021/08/26 11:53:44;;;;;;;;;;;16.80;99.90;;;;;;5090464;28;19908;-72
2021/08/26 11:56:09;;;;;;;;;;;16.90;99.90;;;;;;5093135;28;19916;-72
2021/08/26 11:58:35;;;;;;;;;;;16.40;99.90;;;;;;5093438;28;19916;-71
2021/08/26 12:01:00;;;;;;;;;;;15.80;99.90;;;;;;5092330;28;20093;-72
2021/08/26 12:03:27;;;;;;;;;;;15.80;99.90;;;;;;5092967;28;20280;-72
2021/08/26 12:05:52;;;;;;;;;;;15.40;99.90;;;;;;5093444;28;19919;-72
2021/08/26 12:08:18;;;;;;;;;;;15.80;99.90;;;;;;5092934;28;19908;-72
2021/08/26 12:10:45;;;;;;;;;;;15.50;99.90;;;;;;5092482;28;20338;-71
2021/08/26 12:13:20;;;;;;;;;;;15.60;99.90;;;;;;5089194;28;20002;-72
2021/08/26 12:15:46;;;;;;;;;;;15.80;99.90;;;;;;5090152;28;19924;-72
2021/08/26 12:18:16;;;;;;;;;;;16.00;99.90;;;;;;5091618;28;19912;-72
2021/08/26 12:20:45;;;;;;;;;;;16.10;99.90;;;;;;5087773;28;20646;-71
2021/08/26 12:23:14;;;;;;;;;;;16.00;99.90;;;;;;5087023;28;20392;-72
2021/08/26 12:25:40;;;;;;;;;;;15.90;99.90;;;;;;5087186;28;19939;-72
2021/08/26 12:28:07;;;;;;;;;;;16.30;99.90;;;;;;5086417;28;20262;-71
2021/08/26 12:30:33;;;;;;;;;;;16.60;99.90;;;;;;5068808;28;19916;-72
2021/08/26 12:33:06;;;;;;;;;;;16.80;99.90;;;;;;5085401;28;20400;-71
2021/08/26 12:35:38;;;;;;;;;;;17.10;99.90;;;;;;5090348;28;19952;-72
2021/08/26 12:38:04;;;;;;;;;;;17.20;99.90;;;;;;5083007;28;19957;-72
2021/08/26 12:40:30;;;;;;;;;;;17.00;99.90;;;;;;5083085;28;19999;-71
2021/08/26 12:42:57;;;;;;;;;;;16.70;99.90;;;;;;5085768;28;20384;-72
2021/08/26 12:45:23;;;;;;;;;;;16.20;99.90;;;;;;5078345;28;19987;-71
2021/08/26 12:47:48;;;;;;;;;;;16.10;99.90;;;;;;5089126;28;20365;-71
2021/08/26 12:50:24;;;;;;;;;;;15.80;99.90;;;;;;5091647;28;20286;-71
2021/08/26 12:52:50;;;;;;;;;;;15.70;99.90;;;;;;5088066;28;19915;-71
2021/08/26 12:55:15;;;;;;;;;;;16.00;99.90;;;;;;5092301;28;19908;-71
2021/08/26 12:57:41;;;;;;;;;;;16.30;99.90;;;;;;5091694;28;20002;-72
2021/08/26 13:00:06;;;;;;;;;;;16.40;99.90;;;;;;5092283;28;19915;-71
2021/08/26 13:02:32;;;;;;;;;;;16.20;99.90;;;;;;5092272;28;19916;-71
2021/08/26 13:05:06;;;;;;;;;;;16.30;99.90;;;;;;5092328;28;19942;-71
2021/08/26 13:07:31;;;;;;;;;;;16.20;99.90;;;;;;5090116;28;20377;-71
2021/08/26 13:10:01;;;;;;;;;;;16.00;99.90;;;;;;5092115;28;19915;-71
2021/08/26 13:12:27;;;;;;;;;;;16.10;99.90;;;;;;5092077;28;19927;-71
2021/08/26 13:14:53;;;;;;;;;;;15.90;99.90;;;;;;5091948;28;20007;-71
2021/08/26 13:17:19;;;;;;;;;;;15.90;99.90;;;;;;5091606;28;20181;-71
2021/08/26 13:19:44;;;;;;;;;;;16.10;99.90;;;;;;5088599;28;19911;-71
2021/08/26 13:22:16;;;;;;;;;;;16.20;99.90;;;;;;5090237;28;20262;-71
2021/08/26 13:24:41;;;;;;;;;;;16.00;99.90;;;;;;5091379;28;19939;-71
2021/08/26 13:27:06;;;;;;;;;;;16.10;99.90;;;;;;5088503;28;19947;-72
2021/08/26 13:29:32;;;;;;;;;;;16.10;99.90;;;;;;5085778;28;19919;-71
2021/08/26 13:31:57;;;;;;;;;;;15.90;99.90;;;;;;5085159;28;19908;-71
2021/08/26 13:34:23;;;;;;;;;;;15.80;99.90;;;;;;5083093;28;19999;-71
2021/08/26 13:36:48;;;;;;;;;;;15.80;99.90;;;;;;5074885;28;19909;-71
2021/08/26 13:39:14;;;;;;;;;;;15.60;99.90;;;;;;5084699;28;19920;-72
2021/08/26 13:41:39;;;;;;;;;;;15.90;99.90;;;;;;5087191;28;19912;-71
2021/08/26 13:44:05;;;;;;;;;;;16.20;99.90;;;;;;5087752;28;19920;-72
2021/08/26 13:46:31;;;;;;;;;;;16.60;99.90;;;;;;5096134;28;19923;-71
2021/08/26 13:48:57;;;;;;;;;;;16.50;99.90;;;;;;5089063;28;19908;-72
2021/08/26 13:51:24;;;;;;;;;;;16.60;99.90;;;;;;5087813;28;19919;-72
2021/08/26 13:53:50;;;;;;;;;;;16.60;99.90;;;;;;5088369;28;19942;-72
2021/08/26 13:56:16;;;;;;;;;;;16.70;99.90;;;;;;5087964;28;19915;-71
2021/08/26 13:58:42;;;;;;;;;;;16.60;99.90;;;;;;5091108;28;19912;-71
2021/08/26 14:01:12;;;;;;;;;;;16.50;99.90;;;;;;5089487;28;19928;-71
2021/08/26 14:03:38;;;;;;;;;;;16.40;99.90;;;;;;5091164;28;19908;-71
2021/08/26 14:06:04;;;;;;;;;;;16.50;99.90;;;;;;5090857;28;19908;-71
2021/08/26 14:08:29;;;;;;;;;;;17.00;99.90;;;;;;5090225;28;19961;-71
2021/08/26 14:10:55;;;;;;;;;;;17.50;99.90;;;;;;5081539;28;19912;-71
2021/08/26 14:13:20;;;;;;;;;;;18.80;99.90;;;;;;5075279;28;20308;-72
2021/08/26 14:15:46;;;;;;;;;;;20.80;99.90;;;;;;5081724;28;19908;-72
2021/08/26 14:18:11;;;;;;;;;;;22.90;99.90;;;;;;5075084;28;20007;-72